createdAt,value
2022-11-09T00:00:07.220Z,6.4
2022-11-09T00:05:43.144Z,6.4
2022-11-09T00:10:53.920Z,6.4
2022-11-09T00:16:32.435Z,6.5
2022-11-09T00:21:59.540Z,6.6
2022-11-09T00:27:21.863Z,6.6
2022-11-09T00:32:45.588Z,6.6
2022-11-09T00:38:07.642Z,6.7
2022-11-09T00:43:44.942Z,6.8
2022-11-09T00:49:23.374Z,6.8
2022-11-09T00:54:59.577Z,6.9
2022-11-09T01:00:36.857Z,6.9
2022-11-09T01:06:15.259Z,6.9
2022-11-09T01:11:55.209Z,6.9
2022-11-09T01:17:33.703Z,6.9
2022-11-09T01:22:56.046Z,7
2022-11-09T01:28:17.805Z,7
2022-11-09T01:33:39.745Z,7
2022-11-09T01:39:17.279Z,7
2022-11-09T01:44:54.073Z,7.1
2022-11-09T01:50:31.692Z,7.1
2022-11-09T01:56:09.944Z,7.2
2022-11-09T02:01:31.769Z,7.3
2022-11-09T02:07:09.198Z,7.3
2022-11-09T02:12:46.808Z,7.4
2022-11-09T02:18:08.761Z,7.4
2022-11-09T02:23:46.349Z,7.4
2022-11-09T02:29:28.016Z,7.5
2022-11-09T02:34:49.784Z,7.4
2022-11-09T02:39:56.169Z,7.4
2022-11-09T02:45:37.141Z,7.4
2022-11-09T02:50:58.352Z,7.5
2022-11-09T02:56:20.356Z,7.4
2022-11-09T03:01:27.407Z,7.5
2022-11-09T03:06:49.202Z,7.4
2022-11-09T03:12:26.218Z,7.3
2022-11-09T03:17:48.157Z,7.3
2022-11-09T03:22:53.885Z,7.2
2022-11-09T03:27:59.679Z,7.1
2022-11-09T03:33:08.278Z,7.1
2022-11-09T03:38:14.167Z,7.1
2022-11-09T03:43:21.399Z,7
2022-11-09T03:48:29.063Z,7
2022-11-09T03:53:49.629Z,6.9
2022-11-09T03:59:11.098Z,6.9
2022-11-09T04:03:47.594Z,6.8
2022-11-09T04:08:38.282Z,6.8
2022-11-09T04:13:44.274Z,6.6
2022-11-09T04:18:51.160Z,6.6
2022-11-09T04:24:01.668Z,6.4
2022-11-09T04:29:07.941Z,6.4
2022-11-09T04:34:33.443Z,6.3
2022-11-09T04:39:25.159Z,6.1
2022-11-09T04:44:47.044Z,6.1
2022-11-09T04:49:38.293Z,6.1
2022-11-09T04:54:33.024Z,6
2022-11-09T04:59:40.186Z,5.9
2022-11-09T05:04:31.658Z,5.9
2022-11-09T05:09:22.522Z,5.9
2022-11-09T05:14:34.327Z,5.9
2022-11-09T05:19:10.239Z,5.9
2022-11-09T05:24:17.059Z,6
2022-11-09T05:29:39.588Z,6.1
2022-11-09T05:34:32.231Z,6.1
2022-11-09T05:39:40.373Z,6.2
2022-11-09T05:44:16.624Z,6.3
2022-11-09T05:50:13.049Z,6.4
2022-11-09T05:55:03.269Z,6.6
2022-11-09T05:59:38.937Z,6.7
2022-11-09T06:04:30.585Z,6.9
2022-11-09T06:09:22.338Z,7.1
2022-11-09T06:14:04.173Z,7.3
2022-11-09T06:18:40.196Z,7.6
2022-11-09T06:23:37.219Z,7.9
2022-11-09T06:28:13.143Z,8.4
2022-11-09T06:33:04.616Z,8.8
2022-11-09T06:37:45.223Z,9.2
2022-11-09T06:42:21.717Z,9.7
2022-11-09T06:47:13.782Z,10.3
2022-11-09T06:51:51.743Z,10.9
2022-11-09T06:56:12.188Z,11.9
2022-11-09T07:00:32.490Z,13.1
2022-11-09T07:05:30.523Z,14.8
2022-11-09T07:10:23.966Z,16.4
2022-11-09T07:15:15.639Z,18.1
2022-11-09T07:20:06.964Z,19.8
2022-11-09T07:24:44.939Z,22.4
2022-11-09T07:29:04.916Z,26.4
2022-11-09T07:34:33.757Z,32.3
2022-11-09T07:38:59.667Z,36.1
2022-11-09T07:43:24.970Z,40
2022-11-09T07:48:16.119Z,42.2
2022-11-09T07:53:07.634Z,42.8
2022-11-09T07:57:48.940Z,42.9
2022-11-09T08:02:41.067Z,42.1
2022-11-09T08:07:16.296Z,41.4
2022-11-09T08:11:52.332Z,41.9
2022-11-09T08:16:43.452Z,45.8
2022-11-09T08:21:35.532Z,52.5
2022-11-09T08:26:17.333Z,51.8
2022-11-09T08:30:55.298Z,43.4
2022-11-09T08:35:31.216Z,45.3
2022-11-09T08:40:12.951Z,53
2022-11-09T08:44:47.757Z,48.3
2022-11-09T08:49:23.735Z,42.2
2022-11-09T08:54:14.998Z,42.6
2022-11-09T08:59:21.796Z,46.9
2022-11-09T09:04:29.714Z,53.3
2022-11-09T09:09:27.470Z,48.3
2022-11-09T09:14:19.404Z,41.9
2022-11-09T09:19:11.223Z,41
2022-11-09T09:24:07.865Z,42.9
2022-11-09T09:29:14.709Z,48
2022-11-09T09:34:42.187Z,53.7
2022-11-09T09:40:07.673Z,49.4
2022-11-09T09:45:14.704Z,46.5
2022-11-09T09:50:37.330Z,55.1
2022-11-09T09:56:20.983Z,55.9
2022-11-09T10:01:43.446Z,54.2
2022-11-09T10:07:06.550Z,54.9
2022-11-09T10:12:34.516Z,55.2
2022-11-09T10:18:12.392Z,55.9
2022-11-09T10:23:49.901Z,55.8
2022-11-09T10:30:45.708Z,56.8
2022-11-09T10:36:08.439Z,57
2022-11-09T10:41:31.484Z,57.3
2022-11-09T10:47:10.043Z,57.4
2022-11-09T10:52:48.241Z,57.6
2022-11-09T10:58:50.097Z,57.6
2022-11-09T11:09:22.739Z,58.1
2022-11-09T11:14:57.860Z,58.3
2022-11-09T11:25:49.416Z,58.2
2022-11-09T11:31:27.009Z,58
2022-11-09T11:37:37.921Z,57.9
2022-11-09T11:43:15.537Z,57.5
2022-11-09T11:49:26.779Z,57.6
2022-11-09T11:55:11.598Z,57.6
2022-11-09T12:00:49.339Z,56.9
2022-11-09T12:06:00.873Z,56.7
2022-11-09T12:11:39.710Z,56.6
2022-11-09T12:17:18.439Z,55.6
2022-11-09T12:22:45.751Z,53.8
2022-11-09T12:28:29.499Z,55.1
2022-11-09T12:33:39.398Z,56.1
2022-11-09T12:39:04.196Z,56.9
2022-11-09T12:44:29.221Z,57.2
2022-11-09T12:49:51.631Z,57.2
2022-11-09T12:55:12.530Z,56.8
2022-11-09T13:00:38.280Z,56.6
2022-11-09T13:06:02.525Z,55.9
2022-11-09T13:11:31.461Z,55.1
2022-11-09T13:16:53.459Z,54.1
2022-11-09T13:22:44.348Z,52.8
2022-11-09T13:28:56.618Z,51.4
2022-11-09T13:34:35.925Z,49.9
2022-11-09T13:40:14.225Z,48.3
2022-11-09T13:45:39.065Z,46.8
2022-11-09T13:51:16.762Z,45.1
2022-11-09T13:56:27.123Z,43.4
2022-11-09T14:02:09.689Z,41.5
2022-11-09T14:07:48.103Z,39.7
2022-11-09T14:13:29.362Z,37.9
2022-11-09T14:19:08.578Z,36
2022-11-09T14:24:46.382Z,34.3
2022-11-09T14:30:24.587Z,32.6
2022-11-09T14:36:02.347Z,31
2022-11-09T14:41:40.480Z,29.3
2022-11-09T14:47:18.633Z,27.4
2022-11-09T14:53:01.782Z,25.6
2022-11-09T14:58:45.537Z,23.9
2022-11-09T15:04:29.522Z,22.4
2022-11-09T15:15:38.822Z,20
2022-11-09T15:21:08.084Z,19
2022-11-09T15:26:31.906Z,18.1
2022-11-09T15:31:41.867Z,17.3
2022-11-09T15:36:49.554Z,16.6
2022-11-09T15:42:11.935Z,15.9
2022-11-09T15:47:37.789Z,15.3
2022-11-09T15:53:01.921Z,14.6
2022-11-09T15:58:45.258Z,14.1
2022-11-09T16:04:14.309Z,13.6
2022-11-09T16:09:55.796Z,13.2
2022-11-09T16:15:38.506Z,12.8
2022-11-09T16:21:00.803Z,12.4
2022-11-09T16:26:38.259Z,12.1
2022-11-09T16:32:53.291Z,11.8
2022-11-09T16:39:04.398Z,11.5
2022-11-09T16:44:41.457Z,11.3
2022-11-09T16:50:22.357Z,11.2
2022-11-09T16:56:02.675Z,11
2022-11-09T17:02:10.366Z,10.8
2022-11-09T17:07:33.053Z,10.6
2022-11-09T17:13:11.203Z,10.3
2022-11-09T17:18:35.111Z,9.9
2022-11-09T17:24:15.039Z,9.6
2022-11-09T17:29:23.483Z,9.4
2022-11-09T17:34:45.383Z,9.2
2022-11-09T17:40:24.991Z,8.9
2022-11-09T17:45:47.465Z,8.7
2022-11-09T17:51:11.845Z,8.4
2022-11-09T17:56:05.905Z,8.3
2022-11-09T18:01:28.992Z,8.1
2022-11-09T18:07:07.083Z,7.8
2022-11-09T18:12:43.634Z,7.6
2022-11-09T18:18:21.129Z,7.6
2022-11-09T18:23:31.403Z,7.6
2022-11-09T18:29:15.245Z,7.4
2022-11-09T18:34:53.303Z,7.3
2022-11-09T18:40:17.767Z,7.1
2022-11-09T18:45:39.931Z,7
2022-11-09T18:51:05.575Z,6.9
2022-11-09T18:56:13.004Z,6.8
2022-11-09T19:01:20.941Z,6.6
2022-11-09T19:06:44.460Z,6.5
2022-11-09T19:12:07.284Z,6.4
2022-11-09T19:17:29.651Z,6.3
2022-11-09T19:22:36.788Z,6.2
2022-11-09T19:28:03.975Z,6
2022-11-09T19:33:18.345Z,5.9
2022-11-09T19:39:51.237Z,5.8
2022-11-09T19:45:30.777Z,5.6
2022-11-09T19:50:37.522Z,5.5
2022-11-09T19:56:01.335Z,5.4
2022-11-09T20:01:23.717Z,5.3
2022-11-09T20:07:02.597Z,5.2
2022-11-09T20:12:42.385Z,5.1
2022-11-09T20:18:04.350Z,5.1
2022-11-09T20:23:27.409Z,5
2022-11-09T20:28:33.913Z,5
2022-11-09T20:33:27.876Z,4.9
2022-11-09T20:38:56.740Z,4.9
2022-11-09T20:44:02.916Z,4.9
2022-11-09T20:50:19.970Z,4.9
2022-11-09T20:55:02.340Z,4.8
2022-11-09T20:59:53.236Z,4.8
2022-11-09T21:04:44.504Z,4.7
2022-11-09T21:09:38.351Z,4.6
2022-11-09T21:14:13.784Z,4.5
2022-11-09T21:19:20.459Z,4.4
2022-11-09T21:24:29.769Z,4.4
2022-11-09T21:29:36.646Z,4.3
2022-11-09T21:34:43.838Z,4.2
2022-11-09T21:39:50.591Z,4.1
2022-11-09T21:45:12.256Z,4.1
2022-11-09T21:50:34.224Z,4.1
2022-11-09T21:55:24.804Z,4.1
2022-11-09T22:00:31.737Z,4
2022-11-09T22:05:23.400Z,3.9
2022-11-09T22:11:01.694Z,3.9
2022-11-09T22:16:08.652Z,3.9
2022-11-09T22:20:59.240Z,3.9
2022-11-09T22:26:43.391Z,3.9
2022-11-09T22:32:05.776Z,3.9
2022-11-09T22:37:27.583Z,3.9
2022-11-09T22:42:39.210Z,3.8
2022-11-09T22:47:46.184Z,3.8
2022-11-09T22:53:27.888Z,3.8
2022-11-09T22:58:34.307Z,3.7
2022-11-09T23:04:12.422Z,3.6
2022-11-09T23:09:34.033Z,3.6
2022-11-09T23:15:11.220Z,3.6
2022-11-09T23:20:35.457Z,3.6
2022-11-09T23:26:13.261Z,3.4
2022-11-09T23:31:50.990Z,3.3
2022-11-09T23:37:19.484Z,3.2
2022-11-09T23:42:56.379Z,3.1
2022-11-09T23:48:36.936Z,2.9
2022-11-09T23:53:43.214Z,2.8
2022-11-09T23:58:51.584Z,2.8
